createdAt,value
2022-09-26T08:36:32.853Z,100048.63
2022-09-26T08:39:00.802Z,100052.19
2022-09-26T08:41:48.194Z,100043.75
2022-09-26T08:44:37.776Z,100045.03
2022-09-26T08:47:17.668Z,100031.16
2022-09-26T08:50:00.017Z,100028.44
2022-09-26T08:52:34.308Z,100031.59
2022-09-26T08:55:08.509Z,100039.41
2022-09-26T08:57:42.363Z,100041.59
2022-09-26T09:00:20.175Z,100012.69
2022-09-26T09:03:01.232Z,100023.91
2022-09-26T09:05:32.843Z,100004.28
2022-09-26T09:08:07.893Z,99990.97
2022-09-26T09:10:45.920Z,99992.94
2022-09-26T09:13:32.100Z,100004.53
2022-09-26T09:16:12.110Z,99970.94
2022-09-26T09:18:52.483Z,99980.69
2022-09-26T09:21:29.948Z,99994.72
2022-09-26T09:24:17.283Z,100005.06
2022-09-26T09:30:04.032Z,99994.53
2022-09-26T09:32:49.841Z,99972.50
2022-09-26T09:35:22.083Z,99961.66
2022-09-26T09:37:53.351Z,99980.50
2022-09-26T09:40:28.981Z,99982.91
2022-09-26T09:43:03.821Z,99956.28
2022-09-26T09:45:44.887Z,99931.78
2022-09-26T09:48:13.653Z,99971.00
2022-09-26T09:50:51.110Z,99961.13
2022-09-26T09:53:35.789Z,99966.75
2022-09-26T09:56:15.604Z,99972.00
2022-09-26T09:58:56.397Z,99957.16
2022-09-26T10:01:28.093Z,99957.53
2022-09-26T10:04:04.599Z,99961.47
2022-09-26T10:06:45.343Z,99958.59
2022-09-26T10:09:35.349Z,99951.69
2022-09-26T10:12:16.655Z,99938.06
2022-09-26T10:14:51.002Z,99940.22
2022-09-26T10:17:22.453Z,99938.94
2022-09-26T10:19:50.524Z,99928.03
2022-09-26T10:22:26.125Z,99935.94
2022-09-26T10:25:00.856Z,99907.72
2022-09-26T10:27:37.663Z,99912.97
2022-09-26T10:30:22.492Z,99914.59
2022-09-26T10:32:56.535Z,99913.13
2022-09-26T10:35:26.341Z,99900.34
2022-09-26T10:38:01.290Z,99884.91
2022-09-26T10:40:45.365Z,99902.88
2022-09-26T10:43:30.546Z,99897.03
2022-09-26T10:46:05.764Z,99897.19
2022-09-26T10:48:48.279Z,99907.22
2022-09-26T10:51:21.042Z,99903.41
2022-09-26T10:53:52.927Z,99890.88
2022-09-26T10:56:26.920Z,99888.78
2022-09-26T10:59:01.388Z,99890.31
2022-09-26T11:01:31.782Z,99880.47
2022-09-26T11:04:14.137Z,99882.84
2022-09-26T11:06:44.079Z,99882.69
2022-09-26T11:09:14.152Z,99862.47
2022-09-26T11:11:43.847Z,99877.84
2022-09-26T11:14:28.261Z,99834.44
2022-09-26T11:16:57.224Z,99873.72
2022-09-26T11:19:32.333Z,99867.72
2022-09-26T11:22:08.234Z,99858.16
2022-09-26T11:24:45.574Z,99853.84
2022-09-26T11:27:22.323Z,99852.31
2022-09-26T11:29:56.535Z,99850.41
2022-09-26T11:32:30.282Z,99867.91
2022-09-26T11:35:02.554Z,99852.72
2022-09-26T11:37:52.926Z,99861.56
2022-09-26T11:40:49.952Z,99854.06
2022-09-26T11:43:36.113Z,99850.91
2022-09-26T11:46:23.461Z,99850.19
2022-09-26T11:49:10.558Z,99854.56
2022-09-26T11:51:54.142Z,99840.06
2022-09-26T11:54:46.818Z,99843.41
2022-09-26T11:57:32.962Z,99834.63
2022-09-26T12:00:12.001Z,99830.16
2022-09-26T12:02:57.911Z,99823.28
2022-09-26T12:05:36.453Z,99802.84
2022-09-26T12:08:17.537Z,99826.09
2022-09-26T12:10:56.680Z,99813.63
2022-09-26T12:13:38.813Z,99826.44
2022-09-26T12:16:14.472Z,99811.44
2022-09-26T12:18:54.780Z,99764.72
2022-09-26T12:21:32.532Z,99778.50
2022-09-26T12:24:07.975Z,99767.09
2022-09-26T12:26:46.439Z,99782.44
2022-09-26T12:29:25.767Z,99797.50
2022-09-26T12:32:06.234Z,99797.31
2022-09-26T12:35:07.132Z,99782.84
2022-09-26T12:37:57.307Z,99779.25
2022-09-26T12:40:36.122Z,99789.91
2022-09-26T12:43:27.952Z,99781.88
2022-09-26T12:46:27.268Z,99802.28
2022-09-26T12:49:09.111Z,99782.78
2022-09-26T12:51:46.470Z,99788.63
2022-09-26T12:54:38.310Z,99776.50
2022-09-26T12:57:11.298Z,99778.41
2022-09-26T13:00:05.894Z,99777.75
2022-09-26T13:02:51.335Z,99749.72
2022-09-26T13:05:33.340Z,99772.97
2022-09-26T13:08:11.637Z,99773.41
2022-09-26T13:10:52.338Z,99771.50
2022-09-26T13:13:46.842Z,99767.34
2022-09-26T13:16:25.075Z,99772.53
2022-09-26T13:18:57.627Z,99768.59
2022-09-26T13:21:41.196Z,99782.59
2022-09-26T13:24:18.473Z,99741.03
2022-09-26T13:26:52.941Z,99766.81
2022-09-26T13:29:27.369Z,99763.72
2022-09-26T13:32:02.817Z,99751.13
2022-09-26T13:34:37.523Z,99742.03
2022-09-26T13:37:11.832Z,99755.03
2022-09-26T13:39:52.268Z,99748.91
2022-09-26T13:42:27.750Z,99731.72
2022-09-26T13:45:02.243Z,99738.13
2022-09-26T13:47:42.545Z,99736.00
2022-09-26T13:50:23.298Z,99734.56
2022-09-26T13:53:06.663Z,99725.34
2022-09-26T13:55:36.372Z,99724.13
2022-09-26T13:58:07.824Z,99733.50
2022-09-26T14:00:49.142Z,99718.78
2022-09-26T14:03:42.620Z,99726.16
2022-09-26T14:06:34.213Z,99736.69
2022-09-26T14:09:25.849Z,99730.78
2022-09-26T14:12:20.055Z,99724.59
2022-09-26T14:14:53.228Z,99719.19
2022-09-26T14:18:08.634Z,99724.25
2022-09-26T14:20:55.143Z,99733.38
2022-09-26T14:23:40.019Z,99724.34
2022-09-26T14:26:28.355Z,99727.03
2022-09-26T14:29:12.947Z,99714.97
2022-09-26T14:31:41.715Z,99708.25
2022-09-26T14:34:27.870Z,99700.44
2022-09-26T14:37:04.985Z,99709.75
2022-09-26T14:39:43.636Z,99674.34
2022-09-26T14:42:18.737Z,99684.66
2022-09-26T14:44:56.201Z,99684.44
2022-09-26T14:47:25.872Z,99672.66
2022-09-26T14:50:00.412Z,99671.19
2022-09-26T14:52:28.543Z,99677.03
2022-09-26T14:55:01.395Z,99667.22
2022-09-26T14:57:32.258Z,99667.56
2022-09-26T15:00:02.719Z,99670.00
2022-09-26T15:02:40.588Z,99664.28
2022-09-26T15:05:19.817Z,99645.38
2022-09-26T15:07:49.956Z,99655.63
2022-09-26T15:10:38.279Z,99654.34
2022-09-26T15:13:18.153Z,99642.50
2022-09-26T15:15:57.429Z,99640.78
2022-09-26T15:18:34.575Z,99626.13
2022-09-26T15:21:10.673Z,99634.56
2022-09-26T15:23:49.246Z,99631.28
2022-09-26T15:26:19.729Z,99640.31
2022-09-26T15:28:50.404Z,99625.16
2022-09-26T15:31:28.684Z,99637.25
2022-09-26T15:34:01.366Z,99627.69
2022-09-26T15:36:31.206Z,99626.88
2022-09-26T15:39:00.040Z,99626.53
2022-09-26T15:41:50.747Z,99614.69
2022-09-26T15:44:23.931Z,99611.72
2022-09-26T15:46:53.160Z,99618.06
2022-09-26T15:49:24.434Z,99605.78
2022-09-26T15:51:55.367Z,99595.00
2022-09-26T15:54:28.683Z,99601.25
2022-09-26T15:57:00.573Z,99602.06
2022-09-26T15:59:34.661Z,99586.53
2022-09-26T16:02:22.542Z,99586.00
2022-09-26T16:04:52.855Z,99580.22
2022-09-26T16:07:25.213Z,99585.88
2022-09-26T16:09:53.779Z,99582.56
2022-09-26T16:12:24.036Z,99555.31
2022-09-26T16:14:54.832Z,99577.97
2022-09-26T16:17:27.105Z,99536.25
2022-09-26T16:19:56.862Z,99562.81
2022-09-26T16:22:44.911Z,99545.63
2022-09-26T16:25:32.545Z,99548.88
2022-09-26T16:28:17.641Z,99569.16
2022-09-26T16:30:52.915Z,99562.47
2022-09-26T16:33:30.742Z,99557.28
2022-09-26T16:36:06.153Z,99563.56
2022-09-26T16:38:35.825Z,99546.53
2022-09-26T16:41:08.963Z,99559.09
2022-09-26T16:43:38.993Z,99557.16
2022-09-26T16:46:09.680Z,99513.75
2022-09-26T16:48:41.623Z,99557.41
2022-09-26T16:51:15.244Z,99552.88
2022-09-26T16:53:45.495Z,99543.72
2022-09-26T16:56:15.411Z,99552.47
2022-09-26T16:58:49.490Z,99535.16
2022-09-26T17:01:36.102Z,99542.75
2022-09-26T17:04:06.047Z,99535.44
2022-09-26T17:06:35.151Z,99540.97
2022-09-26T17:09:08.883Z,99540.56
2022-09-26T17:11:37.082Z,99535.63
2022-09-26T17:14:05.032Z,99532.38
2022-09-26T17:16:34.289Z,99537.19
2022-09-26T17:19:02.227Z,99524.25
2022-09-26T17:21:31.436Z,99531.31
2022-09-26T17:23:59.292Z,99522.97
2022-09-26T17:26:27.104Z,99518.69
2022-09-26T17:28:57.193Z,99523.53
2022-09-26T17:31:25.080Z,99533.50
2022-09-26T17:33:54.712Z,99529.59
2022-09-26T17:36:24.215Z,99505.44
2022-09-26T17:38:54.652Z,99510.16
2022-09-26T17:41:25.210Z,99511.94
2022-09-26T17:44:00.057Z,99492.78
2022-09-26T17:46:28.935Z,99496.91
2022-09-26T17:48:56.830Z,99507.44
2022-09-26T17:51:25.479Z,99491.91
2022-09-26T17:53:57.375Z,99497.88
2022-09-26T17:56:26.341Z,99492.78
2022-09-26T17:58:54.242Z,99500.03
2022-09-26T18:01:25.491Z,99500.63
2022-09-26T18:03:56.937Z,99497.56
2022-09-26T18:06:28.109Z,99453.03
2022-09-26T18:08:59.726Z,99479.44
2022-09-26T18:11:28.190Z,99493.59
2022-09-26T18:13:56.896Z,99488.00
2022-09-26T18:16:25.182Z,99483.50
2022-09-26T18:18:53.301Z,99480.78
2022-09-26T18:21:21.757Z,99474.44
2022-09-26T18:23:53.103Z,99479.50
2022-09-26T18:26:28.382Z,99479.69
2022-09-26T18:28:57.804Z,99480.47
2022-09-26T18:31:29.683Z,99468.41
2022-09-26T18:33:58.217Z,99476.25
2022-09-26T18:36:27.255Z,99477.75
2022-09-26T18:38:55.056Z,99476.81
2022-09-26T18:41:26.583Z,99482.09
2022-09-26T18:43:56.886Z,99471.44
2022-09-26T18:46:24.826Z,99459.25
2022-09-26T18:48:58.343Z,99459.22
2022-09-26T18:51:26.688Z,99432.84
2022-09-26T18:53:54.709Z,99462.69
2022-09-26T18:56:41.613Z,99476.03
2022-09-26T18:59:10.342Z,99477.59
2022-09-26T19:01:42.830Z,99459.66
2022-09-26T19:04:15.929Z,99471.00
2022-09-26T19:06:47.027Z,99458.75
2022-09-26T19:09:16.786Z,99459.22
2022-09-26T19:11:46.383Z,99454.13
2022-09-26T19:14:16.499Z,99434.19
2022-09-26T19:16:46.039Z,99462.19
2022-09-26T19:19:14.731Z,99475.13
2022-09-26T19:21:44.473Z,99460.38
2022-09-26T19:24:20.748Z,99449.94
2022-09-26T19:26:53.021Z,99443.97
2022-09-26T19:29:28.257Z,99457.69
2022-09-26T19:31:56.357Z,99454.88
2022-09-26T19:34:24.857Z,99457.00
2022-09-26T19:36:53.802Z,99441.94
2022-09-26T19:39:21.772Z,99437.59
2022-09-26T19:41:51.145Z,99436.41
2022-09-26T19:44:19.098Z,99447.47
2022-09-26T19:46:48.349Z,99446.59
2022-09-26T19:49:18.777Z,99433.22
2022-09-26T19:51:46.959Z,99448.09
2022-09-26T19:54:19.657Z,99424.50
2022-09-26T19:56:48.078Z,99433.63
2022-09-26T19:59:17.801Z,99434.63
2022-09-26T20:01:47.517Z,99438.34
2022-09-26T20:04:17.743Z,99435.91
2022-09-26T20:06:45.965Z,99429.56
2022-09-26T20:09:16.940Z,99421.31
2022-09-26T20:11:45.017Z,99425.69
2022-09-26T20:14:24.841Z,99427.00
2022-09-26T20:16:56.329Z,99391.72
2022-09-26T20:19:31.500Z,99420.47
2022-09-26T20:22:01.981Z,99420.53
2022-09-26T20:24:32.028Z,99430.09
2022-09-26T20:27:02.754Z,99367.00
2022-09-26T20:29:50.760Z,99405.16
2022-09-26T20:32:20.195Z,99420.63
2022-09-26T20:34:48.289Z,99409.44
2022-09-26T20:37:16.451Z,99411.50
2022-09-26T20:39:45.012Z,99396.59
2022-09-26T20:42:18.592Z,99396.16
2022-09-26T20:44:49.758Z,99385.97
2022-09-26T20:47:21.364Z,99344.97
2022-09-26T20:49:54.807Z,99388.63
2022-09-26T20:52:24.926Z,99401.81
2022-09-26T20:54:53.220Z,99396.53
2022-09-26T20:57:22.195Z,99383.63
2022-09-26T20:59:50.526Z,99371.56
2022-09-26T21:02:26.846Z,99388.34
2022-09-26T21:04:55.295Z,99384.72
2022-09-26T21:07:24.327Z,99375.47
2022-09-26T21:09:52.306Z,99374.94
2022-09-26T21:12:20.347Z,99374.19
2022-09-26T21:14:48.367Z,99374.63
2022-09-26T21:17:20.399Z,99370.06
2022-09-26T21:19:51.454Z,99361.09
2022-09-26T21:22:21.848Z,99351.72
2022-09-26T21:24:50.266Z,99349.59
2022-09-26T21:27:18.297Z,99372.41
2022-09-26T21:29:46.876Z,99348.50
2022-09-26T21:32:18.280Z,99369.06
2022-09-26T21:34:55.565Z,99355.78
2022-09-26T21:37:23.646Z,99352.78
2022-09-26T21:39:51.732Z,99345.94
2022-09-26T21:42:19.594Z,99357.47
2022-09-26T21:44:54.196Z,99350.03
2022-09-26T21:47:22.017Z,99353.25
2022-09-26T21:49:50.205Z,99350.28
2022-09-26T21:52:23.440Z,99349.56
2022-09-26T21:54:52.436Z,99339.50
2022-09-26T21:57:24.897Z,99339.50
2022-09-26T21:59:54.192Z,99328.84
2022-09-26T22:02:22.060Z,99331.44
2022-09-26T22:04:49.972Z,99334.69
2022-09-26T22:07:19.293Z,99332.09
2022-09-26T22:09:47.539Z,99323.09
2022-09-26T22:12:15.528Z,99320.28
2022-09-26T22:14:43.643Z,99316.88
2022-09-26T22:17:11.967Z,99311.59
2022-09-26T22:19:39.842Z,99317.75
2022-09-26T22:22:07.673Z,99310.75
2022-09-26T22:24:37.123Z,99317.63
2022-09-26T22:27:05.468Z,99308.69
2022-09-26T22:29:33.740Z,99311.09
2022-09-26T22:32:03.859Z,99311.28
2022-09-26T22:34:32.554Z,99301.50
2022-09-26T22:37:00.517Z,99313.81
2022-09-26T22:39:28.572Z,99307.16
2022-09-26T22:41:57.970Z,99290.06
2022-09-26T22:44:25.966Z,99296.56
2022-09-26T22:46:53.862Z,99297.16
2022-09-26T22:49:21.818Z,99291.44
2022-09-26T22:51:49.790Z,99289.69
2022-09-26T22:54:17.649Z,99281.47
2022-09-26T22:56:45.430Z,99278.78
2022-09-26T22:59:15.047Z,99280.06
2022-09-26T23:01:43.307Z,99281.41
2022-09-26T23:04:11.534Z,99269.38
2022-09-26T23:10:22.162Z,99266.06
2022-09-26T23:12:50.689Z,99260.28
2022-09-26T23:15:20.525Z,99267.81
2022-09-26T23:17:48.631Z,99254.78
2022-09-26T23:20:16.815Z,99246.56
2022-09-26T23:22:44.652Z,99262.53
2022-09-26T23:25:13.582Z,99253.16
2022-09-26T23:27:41.343Z,99246.81
2022-09-26T23:30:10.077Z,99240.44
2022-09-26T23:32:39.277Z,99246.41
2022-09-26T23:35:07.873Z,99238.50
2022-09-26T23:37:35.654Z,99235.00
2022-09-26T23:40:03.602Z,99229.56
2022-09-26T23:42:31.512Z,99223.94
2022-09-26T23:44:59.903Z,99224.09
2022-09-26T23:47:27.661Z,99221.66
2022-09-26T23:49:56.947Z,99217.56
2022-09-26T23:52:24.728Z,99214.72
2022-09-26T23:54:52.560Z,99218.97
2022-09-26T23:57:20.388Z,99206.97
2022-09-26T23:59:48.138Z,99215.97
